ROMMA est une association bénévole à but non lucratif. Votre soutien est indispensable : ADHERER à ROMMA ou FAIRE un DON

Recoubeau - (26, Drôme)

Diois (510 m)   Longitude: 5° 24' E   Latitude: 44° 39' N Station partenaire n°64
 

Détail journalier du     <<     >>

Température Precipitation Humidité Pression Vent Dir Rafale Dir. rafale
Heure (°C) (mm) (%) (hPa) (km/h) (km/h)
01:00 4.308710183SSE10SE
02:00 4.608710181SSE8SE
03:00 4.6088101805SE
04:00 2.8088101706SSE
05:00 2.009010172S6NE
06:00 1.309210171S5S
07:00 0.809210171SSE5S
08:00 3.709310171SSE6SE
09:00 8.9071101705ESE
10:00 11.605810171NNO13NNO
11:00 13.005410172N13N
12:00 14.205110172NE15NNO
13:00 16.304810163N15NNO
14:00 17.304810155N19NNO
15:00 17.704710156N23NNO
16:00 17.4048101513N23N
17:00 17.3048101511N32N
18:00 17.2048101513NO32N
19:00 16.2051101511NO29ONO
20:00 14.505610157NO21ONO
21:00 12.806210164ONO16N
22:00 9.907410161OSO8ONO
23:00 7.408410161SE8ESE
minuit 6.608510161SSE6SE

Graphique du 30-04-2019

 

Serveur OMMA